Time;durP1;ratioP1;P1;durP2;ratioP2;P2;SDS_P1;SDS_P2;PMS_P1;PMS_P2;Temp;Humidity;BMP_temperature;BMP_pressure;BME280_temperature;BME280_humidity;BME280_pressure;Samples;Min_cycle;Max_cycle;Signal;HPM_P1;HPM_P2
2023/05/01 00:00:14;;;;;;;5.80;5.30;;;;;;;10.31;nan;98050.47;4997586;28;20208;-76
2023/05/01 00:02:40;;;;;;;5.37;4.87;;;;;;;10.27;nan;98045.81;4997513;28;20211;-76
2023/05/01 00:05:08;;;;;;;5.70;5.17;;;;;;;10.30;nan;98050.69;4997315;28;20697;-76
2023/05/01 00:07:34;;;;;;;6.37;5.77;;;;;;;10.31;nan;98052.28;4997327;28;20290;-76
2023/05/01 00:10:01;;;;;;;5.93;5.10;;;;;;;10.46;nan;98058.13;4995771;28;20281;-76
2023/05/01 00:12:27;;;;;;;5.93;5.33;;;;;;;10.45;nan;98051.97;4995930;28;20211;-76
2023/05/01 00:14:54;;;;;;;7.90;6.07;;;;;;;10.57;nan;98044.09;4997111;28;20294;-76
2023/05/01 00:17:21;;;;;;;10.27;6.37;;;;;;;10.59;nan;98048.16;4997149;28;20238;-76
2023/05/01 00:19:51;;;;;;;7.03;5.53;;;;;;;10.56;nan;98048.63;4997185;28;20302;-76
2023/05/01 00:22:18;;;;;;;8.03;6.63;;;;;;;10.58;nan;98035.91;4997350;28;20207;-76
2023/05/01 00:24:47;;;;;;;7.57;5.90;;;;;;;10.57;nan;98031.63;4991490;28;20203;-76
2023/05/01 00:27:14;;;;;;;8.20;5.93;;;;;;;10.57;nan;98031.63;4995966;28;20211;-76
2023/05/01 00:29:41;;;;;;;7.27;6.50;;;;;;;10.53;nan;98021.63;4996877;28;20215;-76
2023/05/01 00:32:08;;;;;;;7.13;5.63;;;;;;;10.47;nan;98027.84;4996652;28;20213;-76
2023/05/01 00:34:34;;;;;;;6.23;5.40;;;;;;;10.34;nan;98022.66;4996924;28;20290;-76
2023/05/01 00:37:01;;;;;;;6.33;5.37;;;;;;;10.20;nan;98021.13;4996665;28;20231;-76
2023/05/01 00:39:27;;;;;;;6.30;5.43;;;;;;;10.21;nan;98014.78;4996021;28;20207;-76
2023/05/01 00:41:55;;;;;;;6.73;5.37;;;;;;;10.12;nan;98022.22;4997000;28;20219;-76
2023/05/01 00:44:21;;;;;;;6.60;5.33;;;;;;;10.16;nan;98015.44;4996733;28;20215;-76
2023/05/01 00:46:47;;;;;;;6.93;5.30;;;;;;;10.12;nan;98014.25;4996606;28;20306;-76
2023/05/01 00:49:14;;;;;;;6.90;5.17;;;;;;;10.02;nan;98008.59;4994610;28;20207;-76
2023/05/01 00:51:41;;;;;;;5.47;4.97;;;;;;;10.02;nan;98010.41;4997872;28;20265;-76
2023/05/01 00:54:07;;;;;;;7.33;5.30;;;;;;;10.05;nan;98007.38;4996220;28;20222;-75
2023/05/01 00:56:34;;;;;;;5.77;5.20;;;;;;;10.13;nan;98010.56;4996461;28;20231;-75
2023/05/01 00:59:00;;;;;;;5.80;5.30;;;;;;;10.13;nan;98004.41;4996142;28;20211;-75
2023/05/01 01:01:27;;;;;;;6.63;5.40;;;;;;;10.17;nan;98002.97;4995773;28;20218;-76
2023/05/01 01:03:54;;;;;;;6.27;5.37;;;;;;;10.19;nan;98003.56;4996377;28;20285;-76
2023/05/01 01:06:58;;;;;;;6.33;4.97;;;;;;;10.29;nan;98001.22;4996224;28;20227;-76
2023/05/01 01:09:43;;;;;;;7.00;5.33;;;;;;;10.09;nan;97990.78;4914166;28;20682;-76
2023/05/01 01:12:20;;;;;;;5.70;5.10;;;;;;;10.07;nan;97997.34;4996242;28;20203;-76
2023/05/01 01:15:14;;;;;;;5.63;5.03;;;;;;;10.03;nan;97994.28;4995920;28;20647;-76
2023/05/01 01:17:59;;;;;;;6.10;5.50;;;;;;;10.04;nan;97985.31;4979928;28;20216;-76
2023/05/01 01:20:34;;;;;;;5.50;5.00;;;;;;;9.98;nan;97982.66;4995791;28;20540;-76
2023/05/01 01:23:26;;;;;;;5.77;5.27;;;;;;;9.99;nan;97976.31;4995641;28;20199;-76
2023/05/01 01:26:01;;;;;;;6.30;5.27;;;;;;;9.95;nan;97975.94;4976353;28;20223;-76
2023/05/01 01:29:02;;;;;;;5.87;5.37;;;;;;;9.82;nan;97976.03;4995568;28;20207;-76
2023/05/01 01:31:51;;;;;;;5.50;5.00;;;;;;;9.79;nan;97975.66;4995913;28;20223;-76
2023/05/01 01:34:33;;;;;;;5.87;5.30;;;;;;;9.78;nan;97974.06;4995875;28;20554;-76
2023/05/01 01:37:13;;;;;;;5.77;5.27;;;;;;;9.78;nan;97976.72;4995649;28;20239;-76
2023/05/01 01:39:52;;;;;;;5.57;5.07;;;;;;;9.81;nan;97969.13;4995720;28;20557;-76
2023/05/01 01:42:25;;;;;;;5.70;5.20;;;;;;;9.75;nan;97979.78;4991717;28;20209;-76
2023/05/01 01:44:55;;;;;;;5.23;4.83;;;;;;;9.89;nan;97968.84;4991727;28;20615;-76
2023/05/01 01:47:27;;;;;;;6.73;5.20;;;;;;;9.79;nan;97978.31;4994919;28;20215;-76
2023/05/01 01:49:55;;;;;;;5.93;5.20;;;;;;;9.79;nan;97965.88;4994509;28;20204;-76
2023/05/01 01:52:24;;;;;;;5.97;5.33;;;;;;;9.77;nan;97972.44;4997130;28;20214;-76
2023/05/01 01:55:05;;;;;;;6.13;5.53;;;;;;;9.86;nan;97973.78;4996604;28;20211;-77
2023/05/01 01:57:33;;;;;;;6.97;5.57;;;;;;;9.86;nan;97971.13;4992855;28;20219;-76
2023/05/01 01:59:59;;;;;;;6.20;5.63;;;;;;;9.84;nan;97967.88;4994423;28;20213;-76
2023/05/01 02:02:27;;;;;;;6.17;5.60;;;;;;;9.85;nan;97964.19;4995258;28;20207;-76
2023/05/01 02:04:55;;;;;;;7.47;5.53;;;;;;;9.90;nan;97959.03;4993372;28;20203;-76
2023/05/01 02:07:24;;;;;;;6.60;5.90;;;;;;;9.79;nan;97959.75;4994851;28;20573;-76
2023/05/01 02:09:53;;;;;;;6.10;5.60;;;;;;;9.75;nan;97956.72;4977557;28;20223;-76
2023/05/01 02:12:21;;;;;;;5.43;4.93;;;;;;;9.71;nan;97954.69;4992866;28;20215;-76
2023/05/01 02:14:49;;;;;;;7.73;5.43;;;;;;;9.69;nan;97951.44;4994694;28;20215;-76
2023/05/01 02:17:16;;;;;;;5.83;5.33;;;;;;;9.82;nan;97954.00;4994136;28;20231;-76
2023/05/01 02:19:44;;;;;;;6.43;5.53;;;;;;;9.77;nan;97948.53;4994719;28;20207;-76
2023/05/01 02:22:12;;;;;;;6.10;5.50;;;;;;;9.75;nan;97945.28;4994929;28;20207;-76
2023/05/01 02:24:40;;;;;;;5.53;5.13;;;;;;;9.67;nan;97946.34;4994873;28;20203;-76
2023/05/01 02:27:19;;;;;;;7.93;5.93;;;;;;;9.78;nan;97939.53;4994670;28;20262;-76
2023/05/01 02:29:46;;;;;;;5.93;5.33;;;;;;;9.86;nan;97948.03;4993284;28;20199;-76
2023/05/01 02:32:12;;;;;;;6.33;5.83;;;;;;;9.93;nan;97940.00;4994687;28;20207;-76
2023/05/01 02:34:38;;;;;;;6.20;5.60;;;;;;;9.93;nan;97937.34;4994703;28;20203;-76
2023/05/01 02:37:07;;;;;;;6.70;5.20;;;;;;;9.97;nan;97938.56;4994547;28;20231;-76
2023/05/01 02:39:34;;;;;;;5.37;4.97;;;;;;;9.90;nan;97929.81;4977127;28;20207;-76
2023/05/01 02:42:03;;;;;;;6.20;5.60;;;;;;;10.02;nan;97928.09;4977384;28;20204;-76
2023/05/01 02:44:35;;;;;;;6.97;5.77;;;;;;;10.14;nan;97926.38;4973040;28;20207;-76
2023/05/01 02:47:03;;;;;;;6.03;5.40;;;;;;;10.15;nan;97925.34;4994550;28;20293;-76
2023/05/01 02:49:31;;;;;;;6.07;5.57;;;;;;;10.15;nan;97920.03;4994392;28;20203;-76
2023/05/01 02:51:58;;;;;;;6.10;5.60;;;;;;;10.21;nan;97914.66;4996080;28;20238;-76
2023/05/01 02:54:25;;;;;;;6.50;5.90;;;;;;;10.16;nan;97917.16;4995730;28;20214;-76
2023/05/01 02:56:51;;;;;;;6.13;5.53;;;;;;;10.19;nan;97910.59;4994368;28;20228;-76
2023/05/01 02:59:18;;;;;;;7.30;5.70;;;;;;;10.11;nan;97910.88;4994304;28;20208;-76
2023/05/01 03:01:44;;;;;;;6.67;6.07;;;;;;;10.12;nan;97909.84;4992544;28;20233;-76
2023/05/01 03:04:10;;;;;;;6.33;5.77;;;;;;;10.08;nan;97917.44;4993315;28;20210;-76
2023/05/01 03:06:37;;;;;;;8.07;6.73;;;;;;;10.02;nan;97915.63;4993990;28;20237;-77
2023/05/01 03:09:04;;;;;;;6.50;6.00;;;;;;;10.02;nan;97920.13;4994133;28;20302;-76
2023/05/01 03:11:31;;;;;;;6.67;6.00;;;;;;;10.02;nan;97920.94;4994629;28;20527;-76
2023/05/01 03:13:57;;;;;;;6.43;5.83;;;;;;;10.10;nan;97928.63;4993897;28;20701;-76
2023/05/01 03:16:23;;;;;;;6.23;5.63;;;;;;;10.01;nan;97910.53;4993952;28;20274;-76
2023/05/01 03:18:50;;;;;;;6.13;5.07;;;;;;;9.92;nan;97914.50;4992968;28;20306;-76
2023/05/01 03:21:16;;;;;;;6.37;5.77;;;;;;;9.98;nan;97911.78;4994064;28;20211;-76
2023/05/01 03:23:42;;;;;;;9.00;5.93;;;;;;;9.83;nan;97908.63;4995952;28;20600;-76
2023/05/01 03:26:09;;;;;;;6.07;5.57;;;;;;;9.87;nan;97909.81;4999540;28;20262;-76
2023/05/01 03:28:36;;;;;;;7.67;5.63;;;;;;;9.89;nan;97910.44;4999039;28;20222;-76
2023/05/01 03:31:02;;;;;;;6.40;5.67;;;;;;;9.92;nan;97909.97;4997964;28;20211;-76
2023/05/01 03:33:29;;;;;;;6.43;5.60;;;;;;;9.85;nan;97908.41;4998054;28;20214;-76
2023/05/01 03:36:04;;;;;;;6.80;6.10;;;;;;;9.89;nan;97909.63;4996325;28;20231;-76
2023/05/01 03:38:31;;;;;;;6.73;6.13;;;;;;;9.86;nan;97910.88;4998028;28;20266;-76
2023/05/01 03:40:58;;;;;;;6.77;6.17;;;;;;;9.93;nan;97910.81;4997781;28;20216;-76
2023/05/01 03:43:25;;;;;;;6.83;6.13;;;;;;;9.91;nan;97900.41;4997782;28;20241;-76
2023/05/01 03:45:52;;;;;;;7.80;6.03;;;;;;;9.93;nan;97908.16;4997388;28;20235;-76
2023/05/01 03:48:19;;;;;;;6.60;5.97;;;;;;;10.02;nan;97891.72;4996676;28;20206;-76
2023/05/01 03:50:46;;;;;;;6.40;5.80;;;;;;;9.92;nan;97891.41;4979084;28;20299;-76
2023/05/01 03:53:13;;;;;;;6.77;6.07;;;;;;;9.91;nan;97886.31;4979540;28;20204;-76
2023/05/01 03:55:39;;;;;;;7.40;6.13;;;;;;;9.90;nan;97879.38;4978637;28;20726;-76
2023/05/01 03:58:06;;;;;;;6.53;5.97;;;;;;;9.95;nan;97877.69;4978052;28;20228;-76
2023/05/01 04:00:33;;;;;;;6.83;6.23;;;;;;;9.98;nan;97874.59;4978185;28;20215;-76
2023/05/01 04:03:00;;;;;;;8.13;6.20;;;;;;;10.01;nan;97882.13;4977791;28;20295;-76
2023/05/01 04:05:26;;;;;;;6.77;6.17;;;;;;;9.98;nan;97874.59;4985594;28;20227;-76
2023/05/01 04:07:52;;;;;;;7.13;6.53;;;;;;;9.99;nan;97891.34;4994574;28;20221;-76
2023/05/01 04:10:19;;;;;;;7.00;6.30;;;;;;;10.10;nan;97888.00;4997260;28;20196;-76
2023/05/01 04:12:45;;;;;;;6.87;6.27;;;;;;;10.08;nan;97882.91;4996974;28;20207;-76
2023/05/01 04:15:11;;;;;;;6.77;6.17;;;;;;;10.11;nan;97887.78;4997305;28;20586;-76
2023/05/01 04:17:38;;;;;;;8.07;6.83;;;;;;;10.12;nan;97884.09;4997173;28;20235;-76
2023/05/01 04:20:05;;;;;;;6.73;6.13;;;;;;;10.23;nan;97882.56;4996223;28;20673;-76
2023/05/01 04:22:32;;;;;;;7.03;6.40;;;;;;;10.17;nan;97889.56;4997228;28;20207;-76
2023/05/01 04:24:58;;;;;;;6.60;5.83;;;;;;;10.12;nan;97880.63;4997143;28;20210;-76
2023/05/01 04:27:25;;;;;;;6.03;5.43;;;;;;;10.18;nan;97885.84;4997327;28;20204;-76
2023/05/01 04:29:51;;;;;;;5.77;5.27;;;;;;;10.19;nan;97884.03;4996063;28;20678;-76
2023/05/01 04:32:18;;;;;;;5.97;5.37;;;;;;;10.21;nan;97889.91;4996611;28;20287;-76
2023/05/01 04:34:44;;;;;;;6.40;5.87;;;;;;;10.20;nan;97883.00;4997709;28;20203;-76
2023/05/01 04:37:11;;;;;;;6.53;5.30;;;;;;;10.27;nan;97886.41;4994453;28;20238;-76
2023/05/01 04:39:37;;;;;;;5.97;5.37;;;;;;;10.24;nan;97884.19;4997214;28;20291;-76
2023/05/01 04:42:04;;;;;;;6.17;5.50;;;;;;;10.26;nan;97884.75;4996807;28;20203;-76
2023/05/01 04:44:33;;;;;;;5.67;4.93;;;;;;;10.30;nan;97888.59;4996422;28;20671;-76
2023/05/01 04:47:01;;;;;;;6.43;5.70;;;;;;;10.40;nan;97894.19;4996588;28;20228;-76
2023/05/01 04:49:27;;;;;;;7.63;6.20;;;;;;;10.34;nan;97884.47;4995054;28;20265;-76
2023/05/01 04:51:53;;;;;;;8.97;6.10;;;;;;;10.25;nan;97883.13;4997828;28;20214;-76
2023/05/01 04:54:20;;;;;;;6.23;5.70;;;;;;;10.35;nan;97891.41;4997429;28;20203;-76
2023/05/01 04:56:46;;;;;;;6.77;6.07;;;;;;;10.33;nan;97885.50;4996668;28;20230;-76
2023/05/01 04:59:12;;;;;;;6.10;5.60;;;;;;;10.30;nan;97894.75;4996243;28;20230;-76
2023/05/01 05:01:39;;;;;;;7.23;6.03;;;;;;;10.34;nan;97889.78;4996637;28;20214;-76
2023/05/01 05:04:06;;;;;;;6.50;6.00;;;;;;;10.44;nan;97887.41;4994183;28;20203;-76
2023/05/01 05:06:32;;;;;;;6.90;6.00;;;;;;;10.46;nan;97888.03;4995275;28;20319;-76
2023/05/01 05:08:59;;;;;;;7.23;6.53;;;;;;;10.42;nan;97892.16;4994942;28;20226;-76
2023/05/01 05:11:25;;;;;;;6.97;6.33;;;;;;;10.39;nan;97887.28;4994494;28;20211;-76
2023/05/01 05:13:52;;;;;;;6.70;6.00;;;;;;;10.41;nan;97890.53;4996190;28;20208;-76
2023/05/01 05:16:18;;;;;;;7.10;6.00;;;;;;;10.46;nan;97890.69;4996071;28;20233;-76
2023/05/01 05:18:45;;;;;;;7.00;6.40;;;;;;;10.47;nan;97887.81;4996100;28;20226;-76
2023/05/01 05:21:11;;;;;;;6.30;5.63;;;;;;;10.51;nan;97880.19;4995766;28;20207;-76
2023/05/01 05:23:37;;;;;;;5.93;5.43;;;;;;;10.54;nan;97885.06;4995754;28;20221;-76
2023/05/01 05:26:04;;;;;;;6.63;6.03;;;;;;;10.60;nan;97881.50;4994043;28;20720;-76
2023/05/01 05:28:31;;;;;;;6.47;5.90;;;;;;;10.61;nan;97881.28;4995715;28;20275;-76
2023/05/01 05:30:57;;;;;;;6.90;5.80;;;;;;;10.61;nan;97883.97;4995766;28;20670;-76
2023/05/01 05:33:24;;;;;;;6.03;5.40;;;;;;;10.60;nan;97878.84;4995881;28;20209;-76
2023/05/01 05:35:53;;;;;;;6.07;5.47;;;;;;;10.63;nan;97883.72;4995655;28;20223;-76
2023/05/01 05:38:20;;;;;;;6.27;5.67;;;;;;;10.62;nan;97882.09;4995379;28;20231;-76
2023/05/01 05:40:46;;;;;;;4.90;4.50;;;;;;;10.66;nan;97872.63;4994436;28;20207;-76
2023/05/01 05:43:12;;;;;;;5.23;4.73;;;;;;;10.60;nan;97876.19;4995637;28;20261;-76
2023/05/01 05:45:39;;;;;;;5.93;5.00;;;;;;;10.59;nan;97885.22;4995584;28;20236;-76
2023/05/01 05:48:05;;;;;;;5.83;4.37;;;;;;;10.57;nan;97892.59;4995650;28;20212;-76
2023/05/01 05:50:32;;;;;;;5.93;4.30;;;;;;;10.56;nan;97893.63;4995874;28;20682;-76
2023/05/01 05:52:58;;;;;;;5.40;4.83;;;;;;;10.50;nan;97890.00;4996576;28;20561;-76
2023/05/01 05:55:24;;;;;;;4.90;4.50;;;;;;;10.46;nan;97894.13;4994973;28;20223;-76
2023/05/01 05:57:51;;;;;;;4.83;4.37;;;;;;;10.47;nan;97895.78;4994485;28;20233;-76
2023/05/01 06:00:18;;;;;;;7.23;5.33;;;;;;;10.44;nan;97893.56;4995348;28;20203;-76
2023/05/01 06:02:44;;;;;;;5.43;4.93;;;;;;;10.43;nan;97896.44;4995023;28;20216;-76
2023/05/01 06:05:11;;;;;;;4.90;4.50;;;;;;;10.48;nan;97896.56;4995373;28;20223;-76
2023/05/01 06:07:37;;;;;;;5.00;4.60;;;;;;;10.54;nan;97891.19;4993729;28;20209;-76
2023/05/01 06:10:04;;;;;;;5.93;4.90;;;;;;;10.53;nan;97891.41;4975462;28;20648;-76
2023/05/01 06:12:31;;;;;;;5.30;4.90;;;;;;;10.50;nan;97887.34;4975441;28;20575;-76
2023/05/01 06:14:58;;;;;;;5.67;4.97;;;;;;;10.48;nan;97884.09;4975625;28;20218;-76
2023/05/01 06:17:25;;;;;;;5.40;5.00;;;;;;;10.54;nan;97885.88;4975505;28;20212;-76
2023/05/01 06:19:52;;;;;;;6.43;5.50;;;;;;;10.50;nan;97891.88;4975576;28;20205;-76
2023/05/01 06:22:21;;;;;;;6.10;5.60;;;;;;;10.45;nan;97895.16;4978452;28;20207;-76
2023/05/01 06:24:48;;;;;;;5.37;4.97;;;;;;;10.54;nan;97890.38;4993748;28;20403;-76
2023/05/01 06:27:14;;;;;;;6.27;5.67;;;;;;;10.59;nan;97882.56;4994938;28;20203;-76
2023/05/01 06:29:40;;;;;;;6.43;5.83;;;;;;;10.69;nan;97886.28;4994828;28;20209;-76
2023/05/01 06:32:07;;;;;;;7.10;6.40;;;;;;;10.76;nan;97894.19;4994467;28;20225;-76
2023/05/01 06:34:33;;;;;;;6.87;6.33;;;;;;;10.77;nan;97890.50;4993483;28;20656;-76
2023/05/01 06:36:59;;;;;;;7.10;6.37;;;;;;;10.78;nan;97889.47;4994282;28;20729;-76
2023/05/01 06:39:26;;;;;;;8.20;6.50;;;;;;;10.76;nan;97888.88;4994558;28;20256;-76
2023/05/01 06:41:52;;;;;;;6.03;5.53;;;;;;;10.86;nan;97900.59;4994667;28;20213;-76
2023/05/01 06:44:18;;;;;;;6.30;5.77;;;;;;;10.88;nan;97898.53;4994562;28;20212;-76
2023/05/01 06:46:45;;;;;;;6.20;5.70;;;;;;;10.94;nan;97902.13;4994415;28;20225;-76
2023/05/01 06:49:11;;;;;;;7.03;6.03;;;;;;;10.89;nan;97902.81;4993131;28;20250;-76
2023/05/01 06:51:38;;;;;;;6.87;6.30;;;;;;;11.00;nan;97911.91;4994010;28;20216;-76
2023/05/01 06:54:04;;;;;;;6.70;6.10;;;;;;;11.07;nan;97912.59;4995759;28;20215;-76
2023/05/01 06:56:31;;;;;;;6.47;5.87;;;;;;;11.13;nan;97913.56;4994554;28;20594;-76
2023/05/01 06:58:58;;;;;;;7.60;6.90;;;;;;;11.09;nan;97911.34;4994008;28;20274;-76
2023/05/01 07:01:24;;;;;;;7.00;6.37;;;;;;;11.13;nan;97911.72;4990634;28;20205;-76
2023/05/01 07:03:50;;;;;;;7.00;6.17;;;;;;;11.10;nan;97912.16;4992289;28;20208;-76
2023/05/01 07:06:17;;;;;;;6.83;6.23;;;;;;;11.15;nan;97917.63;4994064;28;20234;-76
2023/05/01 07:08:43;;;;;;;6.80;5.70;;;;;;;11.08;nan;97919.53;4993772;28;20221;-76
2023/05/01 07:11:09;;;;;;;6.00;5.50;;;;;;;11.21;nan;97923.91;4994041;28;20203;-76
2023/05/01 07:13:36;;;;;;;7.17;6.20;;;;;;;11.25;nan;97925.84;4993972;28;20221;-76
2023/05/01 07:16:02;;;;;;;7.00;6.30;;;;;;;11.28;nan;97925.41;4990705;28;20232;-76
2023/05/01 07:18:29;;;;;;;6.37;5.87;;;;;;;11.30;nan;97922.53;4993681;28;20224;-76
2023/05/01 07:20:55;;;;;;;6.00;5.50;;;;;;;11.40;nan;97915.59;4993901;28;20304;-76
2023/05/01 07:23:22;;;;;;;7.00;6.13;;;;;;;11.43;nan;97919.69;4994229;28;20204;-76
2023/05/01 07:25:49;;;;;;;6.93;5.83;;;;;;;11.44;nan;97922.09;4994059;28;20605;-76
2023/05/01 07:28:16;;;;;;;8.93;6.17;;;;;;;11.47;nan;97921.66;4993947;28;20206;-76
2023/05/01 07:30:43;;;;;;;7.83;6.67;;;;;;;11.47;nan;97919.00;4992431;28;20207;-76
2023/05/01 07:33:10;;;;;;;6.60;6.00;;;;;;;11.38;nan;97920.34;4993417;28;20214;-76
2023/05/01 07:35:36;;;;;;;7.03;6.33;;;;;;;11.38;nan;97920.34;4993651;28;20228;-76
2023/05/01 07:38:03;;;;;;;6.83;6.23;;;;;;;11.36;nan;97916.28;4993653;28;20232;-76
2023/05/01 07:40:29;;;;;;;7.47;5.97;;;;;;;11.48;nan;97919.81;4993345;28;20301;-76
2023/05/01 07:42:56;;;;;;;7.33;6.63;;;;;;;11.48;nan;97917.94;4988906;28;20209;-76
2023/05/01 07:45:22;;;;;;;6.50;6.00;;;;;;;11.38;nan;97906.22;4993612;28;20225;-76
2023/05/01 07:47:48;;;;;;;6.33;5.73;;;;;;;11.55;nan;97905.34;4991100;28;20690;-76
2023/05/01 07:50:15;;;;;;;7.30;6.60;;;;;;;11.71;nan;97910.03;4993779;28;20209;-76
2023/05/01 07:52:42;;;;;;;6.93;6.23;;;;;;;11.78;nan;97907.25;4994555;28;20241;-76
2023/05/01 07:55:09;;;;;;;6.90;6.20;;;;;;;11.87;nan;97911.22;4995310;28;20230;-76
2023/05/01 07:57:36;;;;;;;6.83;6.13;;;;;;;11.98;nan;97905.09;4992763;28;20217;-76
2023/05/01 08:00:02;;;;;;;6.47;5.80;;;;;;;12.01;nan;97909.94;4993588;28;20233;-76
2023/05/01 08:02:28;;;;;;;6.20;5.70;;;;;;;12.22;nan;97907.53;4992313;28;20215;-76
2023/05/01 08:04:55;;;;;;;6.57;5.97;;;;;;;12.00;nan;97906.50;4993378;28;20252;-76
2023/05/01 08:07:21;;;;;;;7.13;6.43;;;;;;;12.16;nan;97903.13;4992144;28;20223;-76
2023/05/01 08:09:48;;;;;;;7.47;6.77;;;;;;;12.04;nan;97902.31;4993441;28;20265;-76
2023/05/01 08:12:14;;;;;;;6.93;6.40;;;;;;;12.01;nan;97905.44;4994594;28;20204;-76
2023/05/01 08:14:40;;;;;;;7.10;6.03;;;;;;;12.05;nan;97900.44;4996837;28;20206;-76
2023/05/01 08:17:07;;;;;;;6.40;5.90;;;;;;;12.09;nan;97904.28;4997154;28;20230;-76
2023/05/01 08:19:33;;;;;;;6.83;6.07;;;;;;;12.24;nan;97901.94;4996756;28;20313;-76
2023/05/01 08:21:59;;;;;;;6.70;5.90;;;;;;;12.34;nan;97900.31;4994960;28;20662;-76
2023/05/01 08:24:26;;;;;;;7.30;6.60;;;;;;;12.32;nan;97897.09;4995124;28;20204;-76
2023/05/01 08:26:52;;;;;;;6.43;5.93;;;;;;;12.29;nan;97897.56;4993055;28;20710;-76
2023/05/01 08:29:19;;;;;;;6.63;6.03;;;;;;;12.51;nan;97893.22;4996608;28;20218;-76
2023/05/01 08:31:45;;;;;;;6.60;5.80;;;;;;;12.51;nan;97890.56;4995867;28;20203;-76
2023/05/01 08:34:11;;;;;;;7.10;6.40;;;;;;;12.62;nan;97895.06;4996618;28;20211;-76
2023/05/01 08:36:38;;;;;;;6.57;5.97;;;;;;;12.84;nan;97881.91;4995779;28;20223;-76
2023/05/01 08:39:04;;;;;;;6.37;5.77;;;;;;;13.18;nan;97883.66;4995617;28;20227;-76
2023/05/01 08:41:32;;;;;;;7.00;6.40;;;;;;;13.62;nan;97888.97;4995482;28;20547;-76
2023/05/01 08:44:01;;;;;;;6.27;5.77;;;;;;;13.24;nan;97888.84;4995160;28;20218;-76
2023/05/01 08:46:38;;;;;;;6.43;5.83;;;;;;;13.71;nan;97881.38;4994765;28;20277;-76
2023/05/01 08:49:06;;;;;;;6.60;6.00;;;;;;;13.49;nan;97883.97;4996663;28;20191;-76
2023/05/01 08:51:33;;;;;;;6.47;5.87;;;;;;;13.34;nan;97885.56;4992060;28;20211;-76
2023/05/01 08:54:03;;;;;;;6.70;6.10;;;;;;;13.50;nan;97874.91;4986934;28;20218;-76
2023/05/01 08:56:32;;;;;;;7.00;6.30;;;;;;;13.89;nan;97881.94;4992282;28;20725;-76
2023/05/01 08:59:00;;;;;;;6.63;6.03;;;;;;;14.01;nan;97876.50;4995212;28;20721;-78
2023/05/01 09:01:28;;;;;;;6.80;6.13;;;;;;;13.79;nan;97887.13;4991018;28;20218;-76
2023/05/01 09:03:55;;;;;;;6.33;5.80;;;;;;;13.73;nan;97889.94;4994409;28;20571;-76
2023/05/01 09:06:22;;;;;;;6.23;5.60;;;;;;;13.96;nan;97879.91;4996590;28;20586;-76
2023/05/01 09:08:49;;;;;;;6.13;5.57;;;;;;;13.91;nan;97887.84;4994922;28;20218;-76
2023/05/01 09:11:15;;;;;;;6.67;6.07;;;;;;;13.69;nan;97889.63;4996212;28;20298;-76
2023/05/01 09:13:41;;;;;;;6.90;6.20;;;;;;;14.20;nan;97886.72;4994228;28;20211;-76
2023/05/01 09:16:08;;;;;;;7.07;5.63;;;;;;;14.26;nan;97892.94;4994030;28;20307;-76
2023/05/01 09:18:35;;;;;;;6.53;5.30;;;;;;;14.53;nan;97894.69;4996023;28;20227;-76
2023/05/01 09:21:02;;;;;;;6.20;5.60;;;;;;;14.23;nan;97894.25;4994569;28;20238;-76
2023/05/01 09:23:28;;;;;;;6.23;5.63;;;;;;;14.08;nan;97899.34;4995890;28;20203;-76
2023/05/01 09:25:56;;;;;;;5.73;5.27;;;;;;;14.04;nan;97892.88;4994527;28;20740;-76
2023/05/01 09:28:42;;;;;;;6.30;5.80;;;;;;;14.83;nan;97886.22;4993004;28;20283;-76
2023/05/01 09:31:32;;;;;;;6.00;5.50;;;;;;;14.95;nan;97890.38;4995814;28;20223;-76
2023/05/01 09:34:00;;;;;;;6.60;6.00;;;;;;;14.54;nan;97888.25;4994314;28;20210;-76
2023/05/01 09:36:29;;;;;;;7.33;5.77;;;;;;;14.45;nan;97899.63;4992757;28;20227;-77
2023/05/01 09:38:59;;;;;;;6.93;6.33;;;;;;;14.92;nan;97895.44;4995183;28;20223;-77
2023/05/01 09:41:27;;;;;;;6.83;6.07;;;;;;;14.31;nan;97893.84;4995235;28;20651;-76
2023/05/01 09:43:56;;;;;;;6.00;5.50;;;;;;;14.61;nan;97894.22;4993032;28;20207;-76
2023/05/01 09:46:23;;;;;;;6.20;5.60;;;;;;;15.14;nan;97888.16;4995107;28;20235;-76
2023/05/01 09:49:02;;;;;;;6.80;6.20;;;;;;;15.36;nan;97881.75;4994083;28;20218;-76
2023/05/01 09:51:32;;;;;;;6.87;6.27;;;;;;;15.32;nan;97888.63;4994667;28;20793;-76
2023/05/01 09:54:02;;;;;;;6.33;5.67;;;;;;;15.41;nan;97889.81;4996714;28;20207;-76
2023/05/01 09:56:31;;;;;;;6.67;5.93;;;;;;;15.38;nan;97884.97;4992098;28;20599;-76
2023/05/01 09:59:14;;;;;;;6.37;5.73;;;;;;;15.44;nan;97888.50;4994852;28;20733;-77
2023/05/01 10:01:42;;;;;;;6.90;6.30;;;;;;;15.76;nan;97883.97;4992800;28;20211;-76
2023/05/01 10:04:09;;;;;;;5.80;5.30;;;;;;;15.52;nan;97886.16;4982893;28;20286;-76
2023/05/01 10:06:36;;;;;;;6.27;5.80;;;;;;;15.59;nan;97881.44;4992256;28;20235;-76
2023/05/01 10:09:05;;;;;;;6.50;5.80;;;;;;;15.19;nan;97886.34;4994714;28;20333;-76
2023/05/01 10:11:47;;;;;;;7.87;6.13;;;;;;;15.24;nan;97885.63;4993538;28;20577;-76
2023/05/01 10:14:13;;;;;;;6.63;6.13;;;;;;;15.39;nan;97886.59;4995018;28;20195;-76
2023/05/01 10:16:40;;;;;;;6.73;6.07;;;;;;;14.80;nan;97887.53;4992900;28;20219;-76
2023/05/01 10:19:06;;;;;;;6.60;6.10;;;;;;;14.88;nan;97880.94;4992688;28;20313;-76
2023/05/01 10:21:33;;;;;;;7.20;6.57;;;;;;;14.90;nan;97884.97;4994561;28;20207;-76
2023/05/01 10:24:02;;;;;;;6.93;6.43;;;;;;;15.23;nan;97892.81;4994016;28;20204;-76
2023/05/01 10:26:28;;;;;;;6.43;5.83;;;;;;;15.28;nan;97887.53;4994669;28;20263;-76
2023/05/01 10:28:58;;;;;;;6.97;6.30;;;;;;;15.47;nan;97888.00;4993738;28;20559;-76
2023/05/01 10:31:25;;;;;;;7.10;6.20;;;;;;;15.28;nan;97889.41;4994590;28;20203;-76
2023/05/01 10:33:52;;;;;;;6.87;6.33;;;;;;;15.44;nan;97886.66;4991037;28;20286;-76
2023/05/01 10:36:31;;;;;;;6.77;6.13;;;;;;;15.54;nan;97888.59;4995108;28;20289;-79
2023/05/01 10:38:57;;;;;;;8.70;6.40;;;;;;;15.40;nan;97893.56;4995388;28;20219;-76
2023/05/01 10:41:58;;;;;;;7.23;6.00;;;;;;;15.45;nan;97882.09;4993258;28;20213;-76
2023/05/01 10:44:26;;;;;;;6.13;5.63;;;;;;;15.97;nan;97885.75;4994549;28;20234;-76
2023/05/01 10:46:53;;;;;;;6.97;6.37;;;;;;;16.29;nan;97887.31;4991551;28;20227;-76
2023/05/01 10:49:20;;;;;;;6.60;6.00;;;;;;;16.22;nan;97888.59;4995086;28;20546;-76
2023/05/01 10:51:58;;;;;;;7.07;5.47;;;;;;;16.47;nan;97883.44;4995403;28;20207;-76
2023/05/01 10:54:26;;;;;;;7.07;6.03;;;;;;;16.25;nan;97878.19;4995965;28;20207;-76
2023/05/01 10:56:57;;;;;;;6.70;6.10;;;;;;;16.40;nan;97880.16;4994787;28;20231;-76
2023/05/01 10:59:24;;;;;;;6.97;6.27;;;;;;;16.35;nan;97878.25;4991549;28;20258;-76
2023/05/01 11:01:51;;;;;;;6.43;5.67;;;;;;;16.37;nan;97880.66;4991324;28;20214;-76
2023/05/01 11:04:21;;;;;;;6.97;6.33;;;;;;;15.92;nan;97880.38;4993865;28;20207;-76
2023/05/01 11:07:07;;;;;;;6.80;6.17;;;;;;;15.82;nan;97883.75;4993886;28;20558;-72
2023/05/01 11:09:41;;;;;;;7.97;6.50;;;;;;;14.99;nan;97877.28;4993721;28;20222;-72
2023/05/01 11:12:10;;;;;;;6.60;6.07;;;;;;;15.83;nan;97877.31;4994149;28;20191;-72
2023/05/01 11:14:56;;;;;;;6.70;6.07;;;;;;;15.39;nan;97873.22;4993732;28;20221;-72
2023/05/01 11:17:40;;;;;;;6.97;6.33;;;;;;;15.90;nan;97871.75;4991927;28;20203;-72
2023/05/01 11:20:12;;;;;;;7.30;6.60;;;;;;;16.04;nan;97871.06;4993829;28;20227;-72
2023/05/01 11:22:44;;;;;;;7.03;6.03;;;;;;;16.27;nan;97870.66;4993869;28;20187;-72
2023/05/01 11:25:21;;;;;;;6.87;6.13;;;;;;;16.40;nan;97861.38;4994735;28;20235;-72
2023/05/01 11:27:49;;;;;;;6.70;6.10;;;;;;;16.15;nan;97864.69;4994627;28;20187;-72
2023/05/01 11:30:16;;;;;;;6.17;5.57;;;;;;;16.22;nan;97864.47;4994255;28;20238;-72
2023/05/01 11:32:47;;;;;;;6.53;5.93;;;;;;;16.30;nan;97864.81;4992845;28;20207;-72
2023/05/01 11:35:19;;;;;;;6.50;6.00;;;;;;;16.28;nan;97853.50;4994066;28;20728;-72
2023/05/01 11:37:46;;;;;;;6.50;6.00;;;;;;;16.47;nan;97857.38;4993804;28;20204;-72
2023/05/01 11:40:31;;;;;;;6.13;5.63;;;;;;;16.46;nan;97855.78;4993783;28;20239;-72
2023/05/01 11:43:03;;;;;;;6.60;5.97;;;;;;;16.50;nan;97866.78;4993701;28;20239;-72
2023/05/01 11:45:30;;;;;;;6.83;6.33;;;;;;;16.20;nan;97859.34;4993041;28;20238;-72
2023/05/01 11:47:56;;;;;;;7.27;5.93;;;;;;;15.73;nan;97857.66;4997669;28;20262;-72
2023/05/01 11:50:34;;;;;;;6.80;6.10;;;;;;;16.40;nan;97856.00;4997413;28;20209;-73
2023/05/01 11:53:00;;;;;;;6.97;6.27;;;;;;;16.34;nan;97867.75;4998354;28;20192;-73
2023/05/01 11:55:34;;;;;;;6.50;6.00;;;;;;;16.14;nan;97860.41;4997791;28;20711;-72
2023/05/01 11:58:03;;;;;;;5.77;5.37;;;;;;;16.36;nan;97855.69;4997482;28;20208;-72